createdAt,value
2019-05-13T00:01:50.458Z,7.26
2019-05-13T00:04:21.582Z,7.28
2019-05-13T00:06:55.127Z,7.25
2019-05-13T00:09:26.248Z,7.20
2019-05-13T00:11:57.760Z,7.19
2019-05-13T00:14:29.053Z,7.23
2019-05-13T00:17:00.008Z,7.19
2019-05-13T00:19:31.003Z,7.14
2019-05-13T00:22:03.807Z,7.11
2019-05-13T00:24:35.264Z,7.08
2019-05-13T00:27:06.258Z,7.05
2019-05-13T00:29:37.089Z,6.99
2019-05-13T00:32:08.075Z,7.02
2019-05-13T00:34:39.186Z,7.02
2019-05-13T00:37:11.790Z,7.02
2019-05-13T00:39:44.237Z,7.01
2019-05-13T00:42:15.452Z,7.03
2019-05-13T00:44:46.734Z,7.06
2019-05-13T00:47:18.206Z,7.06
2019-05-13T00:49:49.189Z,7.05
2019-05-13T00:52:20.427Z,7.02
2019-05-13T00:54:53.019Z,6.97
2019-05-13T00:57:24.077Z,6.86
2019-05-13T00:59:55.060Z,6.80
2019-05-13T01:02:27.490Z,6.70
2019-05-13T01:04:58.857Z,6.72
2019-05-13T01:07:30.684Z,6.62
2019-05-13T01:10:04.030Z,6.65
2019-05-13T01:12:34.617Z,6.62
2019-05-13T01:15:08.120Z,6.67
2019-05-13T01:17:39.002Z,6.65
2019-05-13T01:20:10.081Z,6.61
2019-05-13T01:22:43.816Z,6.55
2019-05-13T01:25:14.491Z,6.50
2019-05-13T01:27:45.762Z,6.49
2019-05-13T01:30:16.762Z,6.48
2019-05-13T01:32:47.871Z,6.50
2019-05-13T01:35:18.907Z,6.51
2019-05-13T01:37:49.947Z,6.48
2019-05-13T01:40:20.917Z,6.43
2019-05-13T01:42:54.032Z,6.37
2019-05-13T01:45:24.697Z,6.35
2019-05-13T01:47:55.663Z,6.28
2019-05-13T01:50:26.979Z,6.24
2019-05-13T01:52:59.331Z,6.23
2019-05-13T01:55:30.891Z,6.19
2019-05-13T01:58:04.375Z,6.14
2019-05-13T02:00:35.714Z,6.13
2019-05-13T02:03:06.937Z,6.09
2019-05-13T02:05:38.138Z,6.06
2019-05-13T02:08:09.179Z,5.99
2019-05-13T02:10:59.159Z,5.97
2019-05-13T02:13:34.081Z,5.95
2019-05-13T02:16:04.622Z,5.92
2019-05-13T02:18:35.660Z,5.81
2019-05-13T02:21:06.608Z,5.77
2019-05-13T02:23:37.656Z,5.72
2019-05-13T02:26:08.758Z,5.68
2019-05-13T02:28:39.753Z,5.69
2019-05-13T02:31:13.683Z,5.63
2019-05-13T02:33:43.472Z,5.61
2019-05-13T02:36:14.630Z,5.60
2019-05-13T02:38:45.747Z,5.53
2019-05-13T02:41:16.848Z,5.43
2019-05-13T02:43:47.895Z,5.39
2019-05-13T02:46:18.895Z,5.40
2019-05-13T02:48:52.838Z,5.39
2019-05-13T02:51:23.259Z,5.36
2019-05-13T02:53:54.531Z,5.34
2019-05-13T02:56:25.567Z,5.33
2019-05-13T02:58:56.559Z,5.28
2019-05-13T03:01:27.717Z,5.15
2019-05-13T03:04:02.755Z,5.10
2019-05-13T03:06:33.215Z,5.09
2019-05-13T03:09:07.889Z,5.07
2019-05-13T03:11:41.559Z,5.01
2019-05-13T03:14:12.873Z,4.98
2019-05-13T03:16:56.580Z,4.94
2019-05-13T03:19:27.527Z,4.93
2019-05-13T03:21:58.470Z,4.92
2019-05-13T03:24:32.725Z,4.89
2019-05-13T03:27:02.738Z,4.86
2019-05-13T03:29:34.211Z,4.84
2019-05-13T03:32:07.626Z,4.82
2019-05-13T03:34:44.609Z,4.78
2019-05-13T03:37:15.319Z,4.75
2019-05-13T03:39:44.702Z,4.71
2019-05-13T03:42:15.639Z,4.70
2019-05-13T03:44:46.815Z,4.67
2019-05-13T03:47:17.896Z,4.65
2019-05-13T03:49:48.939Z,4.65
2019-05-13T03:52:22.514Z,4.60
2019-05-13T03:54:52.527Z,4.44
2019-05-13T03:59:55.523Z,4.43
2019-05-13T04:02:32.373Z,4.45
2019-05-13T04:05:03.966Z,4.44
2019-05-13T04:07:36.069Z,4.40
2019-05-13T04:10:13.118Z,4.39
2019-05-13T04:15:16.528Z,4.37
2019-05-13T04:17:47.491Z,4.34
2019-05-13T04:20:18.530Z,4.34
2019-05-13T04:22:52.679Z,4.31
2019-05-13T04:25:23.126Z,4.30
2019-05-13T04:27:54.716Z,4.31
2019-05-13T04:30:25.694Z,4.31
2019-05-13T04:32:56.720Z,4.35
2019-05-13T04:35:27.703Z,4.36
2019-05-13T04:37:58.688Z,4.41
2019-05-13T04:40:32.959Z,4.42
2019-05-13T04:43:03.113Z,4.43
2019-05-13T04:45:34.570Z,4.40
2019-05-13T04:48:06.341Z,4.40
2019-05-13T04:50:38.189Z,4.40
2019-05-13T04:53:09.528Z,4.45
2019-05-13T04:55:42.745Z,4.42
2019-05-13T04:58:13.689Z,4.45
2019-05-13T05:01:13.296Z,4.46
2019-05-13T05:03:53.180Z,4.54
2019-05-13T05:06:36.847Z,4.61
2019-05-13T05:13:16.758Z,4.83
2019-05-13T05:16:33.337Z,4.94
2019-05-13T05:19:47.366Z,5.08
2019-05-13T05:23:42.298Z,5.16
2019-05-13T05:27:21.343Z,5.31
2019-05-13T05:30:55.185Z,5.46
2019-05-13T05:34:28.204Z,5.63
2019-05-13T05:37:31.177Z,5.79
2019-05-13T05:40:02.141Z,5.95
2019-05-13T05:48:53.385Z,6.34
2019-05-13T05:50:48.683Z,6.52
2019-05-13T05:53:23.006Z,6.72
2019-05-13T06:00:54.260Z,7.31
2019-05-13T06:05:54.382Z,7.81
2019-05-13T06:08:35.567Z,8.08
2019-05-13T06:11:08.704Z,8.30
2019-05-13T06:21:55.720Z,9.22
2019-05-13T06:27:14.037Z,9.80
2019-05-13T06:32:31.413Z,10.12
2019-05-13T06:41:09.058Z,10.62
2019-05-13T06:50:06.508Z,11.24
2019-05-13T07:01:27.287Z,11.07
2019-05-13T08:17:48.260Z,14.84
2019-05-13T08:22:58.704Z,15.18
2019-05-13T08:25:43.676Z,15.45
2019-05-13T08:31:21.816Z,15.49
2019-05-13T08:36:51.387Z,15.26
2019-05-13T08:42:40.876Z,16.13
2019-05-13T08:46:08.473Z,16.42
2019-05-13T09:13:22.757Z,17.72
2019-05-13T09:18:45.646Z,17.28
2019-05-13T09:23:48.671Z,17.55
2019-05-13T09:29:02.198Z,17.30
2019-05-13T09:34:08.579Z,17.79
2019-05-13T09:39:17.870Z,18.19
2019-05-13T09:42:12.878Z,18.24
2019-05-13T09:50:04.447Z,18.65
2019-05-13T09:55:32.559Z,18.40
2019-05-13T10:00:33.025Z,18.15
2019-05-13T10:05:36.745Z,18.52
2019-05-13T10:15:42.943Z,18.75
2019-05-13T10:18:26.167Z,18.70
2019-05-13T10:21:01.292Z,18.93
2019-05-13T10:26:06.640Z,18.92
2019-05-13T10:31:07.053Z,18.85
2019-05-13T10:36:11.894Z,18.51
2019-05-13T10:41:12.132Z,19.21
2019-05-13T10:48:42.139Z,19.65
2019-05-13T10:51:14.310Z,19.64
2019-05-13T10:53:47.637Z,19.79
2019-05-13T10:56:20.316Z,19.69
2019-05-13T10:58:53.443Z,19.80
2019-05-13T11:03:55.306Z,19.96
2019-05-13T11:08:58.185Z,20.06
2019-05-13T11:14:08.277Z,20.29
2019-05-13T11:21:32.197Z,20.32
2019-05-13T11:26:36.112Z,20.62
2019-05-13T11:29:06.459Z,20.23
2019-05-13T11:34:11.998Z,20.06
2019-05-13T11:39:13.715Z,19.78
2019-05-13T11:44:16.935Z,19.21
2019-05-13T11:47:07.093Z,19.48
2019-05-13T11:49:38.419Z,19.04
2019-05-13T11:52:12.111Z,19.61
2019-05-13T11:57:12.758Z,20.03
2019-05-13T12:02:16.034Z,20.30
2019-05-13T12:07:16.652Z,19.88
2019-05-13T12:09:51.814Z,20.26
2019-05-13T12:15:22.509Z,20.59
2019-05-13T12:19:58.299Z,19.66
2019-05-13T12:22:31.287Z,20.03
2019-05-13T12:25:02.889Z,19.99
2019-05-13T12:30:06.791Z,20.66
2019-05-13T12:35:13.328Z,20.46
2019-05-13T12:40:12.477Z,20.91
2019-05-13T12:42:47.133Z,21.02
2019-05-13T12:45:16.413Z,21.14
2019-05-13T12:47:48.526Z,21.20
2019-05-13T12:50:23.957Z,21.20
2019-05-13T12:55:24.541Z,21.42
2019-05-13T13:00:36.583Z,21.33
2019-05-13T13:03:13.036Z,21.11
2019-05-13T13:08:19.246Z,20.96
2019-05-13T13:11:13.298Z,20.73
2019-05-13T13:14:17.035Z,20.94
2019-05-13T13:17:12.800Z,20.88
2019-05-13T13:25:13.281Z,21.10
2019-05-13T13:28:11.399Z,20.67
2019-05-13T13:30:44.190Z,20.52
2019-05-13T13:33:18.331Z,20.17
2019-05-13T13:36:00.241Z,20.08
2019-05-13T13:41:38.869Z,20.03
2019-05-13T13:44:12.573Z,20.41
2019-05-13T13:52:01.536Z,20.52
2019-05-13T14:02:36.967Z,19.37
2019-05-13T14:08:30.063Z,19.86
2019-05-13T14:11:11.420Z,20.09
2019-05-13T14:16:47.059Z,19.97
2019-05-13T14:19:23.190Z,19.65
2019-05-13T14:21:57.797Z,19.31
2019-05-13T14:24:42.796Z,19.49
2019-05-13T14:30:51.676Z,19.75
2019-05-13T14:35:57.813Z,19.74
2019-05-13T14:41:42.367Z,19.47
2019-05-13T14:44:12.706Z,19.32
2019-05-13T14:46:49.005Z,19.49
2019-05-13T14:52:22.359Z,19.61
2019-05-13T15:00:29.455Z,19.67
2019-05-13T15:08:36.656Z,19.70
2019-05-13T15:14:14.131Z,19.15
2019-05-13T15:20:07.159Z,18.79
2019-05-13T15:25:36.230Z,18.39
2019-05-13T15:28:51.879Z,18.65
2019-05-13T15:31:25.114Z,18.73
2019-05-13T15:34:15.186Z,18.95
2019-05-13T15:36:50.972Z,18.55
2019-05-13T15:39:25.440Z,18.63
2019-05-13T15:42:01.912Z,18.70
2019-05-13T15:47:23.370Z,18.78
2019-05-13T15:52:26.125Z,18.57
2019-05-13T15:57:47.071Z,18.36
2019-05-13T16:00:18.022Z,18.35
2019-05-13T16:05:18.267Z,18.51
2019-05-13T16:10:22.203Z,18.34
2019-05-13T16:15:22.537Z,18.20
2019-05-13T16:17:55.735Z,18.27
2019-05-13T16:20:28.948Z,18.24
2019-05-13T16:23:02.327Z,18.20
2019-05-13T16:25:33.747Z,18.34
2019-05-13T16:28:23.787Z,18.29
2019-05-13T16:33:24.859Z,17.99
2019-05-13T16:38:28.270Z,17.69
2019-05-13T16:43:31.931Z,17.49
2019-05-13T16:46:07.303Z,17.46
2019-05-13T16:48:36.368Z,17.44
2019-05-13T16:53:41.878Z,17.51
2019-05-13T16:56:25.640Z,17.30
2019-05-13T16:58:44.724Z,17.36
2019-05-13T17:01:16.634Z,17.47
2019-05-13T17:06:17.834Z,17.43
2019-05-13T17:11:21.017Z,17.27
2019-05-13T17:16:21.414Z,17.18
2019-05-13T17:18:53.275Z,17.12
2019-05-13T17:23:57.059Z,17.32
2019-05-13T17:26:29.423Z,17.33
2019-05-13T17:29:01.394Z,17.20
2019-05-13T17:34:02.523Z,17.12
2019-05-13T17:39:03.153Z,17.09
2019-05-13T17:44:03.390Z,16.94
2019-05-13T17:46:37.033Z,16.97
2019-05-13T17:49:09.024Z,16.96
2019-05-13T17:51:43.608Z,16.92
2019-05-13T17:57:13.802Z,16.81
2019-05-13T18:02:22.667Z,16.60
2019-05-13T18:07:32.131Z,16.41
2019-05-13T18:12:38.225Z,16.24
2019-05-13T18:17:38.295Z,16.24
2019-05-13T18:21:05.742Z,16.03
2019-05-13T18:26:16.327Z,15.93
2019-05-13T18:31:18.385Z,15.82
2019-05-13T18:36:22.907Z,15.81
2019-05-13T18:41:23.650Z,15.54
2019-05-13T18:46:28.662Z,15.55
2019-05-13T18:51:47.815Z,15.46
2019-05-13T18:57:12.176Z,15.27
2019-05-13T19:02:16.381Z,15.12
2019-05-13T19:04:46.303Z,14.91
2019-05-13T19:07:18.553Z,14.95
2019-05-13T19:09:52.296Z,14.90
2019-05-13T19:12:31.362Z,14.93
2019-05-13T19:15:11.593Z,14.78
2019-05-13T19:17:51.976Z,14.67
2019-05-13T19:20:35.285Z,14.66
2019-05-13T19:23:16.882Z,14.59
2019-05-13T19:25:57.179Z,14.48
2019-05-13T19:28:35.099Z,14.44
2019-05-13T19:31:08.457Z,14.35
2019-05-13T19:33:41.482Z,14.32
2019-05-13T19:36:44.064Z,14.25
2019-05-13T19:39:31.484Z,14.25
2019-05-13T19:42:06.238Z,14.12
2019-05-13T19:44:43.208Z,13.89
2019-05-13T19:47:14.273Z,13.87
2019-05-13T19:49:47.392Z,13.88
2019-05-13T19:52:22.373Z,13.85
2019-05-13T19:54:53.349Z,13.84
2019-05-13T19:57:24.887Z,13.73
2019-05-13T19:59:56.399Z,13.64
2019-05-13T20:02:31.653Z,13.58
2019-05-13T20:05:02.780Z,13.52
2019-05-13T20:07:32.750Z,13.46
2019-05-13T20:12:32.780Z,13.31
2019-05-13T20:15:06.800Z,13.21
2019-05-13T20:22:38.455Z,12.96
2019-05-13T20:27:42.171Z,12.88
2019-05-13T20:32:43.211Z,12.74
2019-05-13T20:37:45.177Z,12.49
2019-05-13T20:40:16.152Z,12.42
2019-05-13T20:42:51.500Z,12.35
2019-05-13T20:45:22.703Z,12.31
2019-05-13T20:47:53.748Z,12.24
2019-05-13T20:50:24.715Z,12.23
2019-05-13T20:52:55.762Z,12.21
2019-05-13T20:55:28.374Z,12.18
2019-05-13T20:58:01.323Z,12.10
2019-05-13T21:00:33.856Z,11.92
2019-05-13T21:03:04.930Z,11.81
2019-05-13T21:08:24.675Z,11.67
2019-05-13T21:10:55.616Z,11.58
2019-05-13T21:13:26.556Z,11.57
2019-05-13T21:15:57.896Z,11.52
2019-05-13T21:18:31.423Z,11.53
2019-05-13T21:21:03.011Z,11.50
2019-05-13T21:23:34.238Z,11.45
2019-05-13T21:26:06.323Z,11.31
2019-05-13T21:28:41.900Z,11.30
2019-05-13T21:31:12.705Z,11.30
2019-05-13T21:33:43.753Z,11.09
2019-05-13T21:36:14.694Z,10.95
2019-05-13T21:38:45.712Z,11.07
2019-05-13T21:41:18.024Z,10.97
2019-05-13T21:43:48.968Z,10.94
2019-05-13T21:46:21.236Z,10.96
2019-05-13T21:48:53.148Z,10.91
2019-05-13T21:51:24.802Z,10.86
2019-05-13T21:53:55.945Z,10.83
2019-05-13T21:56:27.024Z,10.83
2019-05-13T21:58:58.119Z,10.69
2019-05-13T22:01:31.512Z,10.63
2019-05-13T22:04:02.775Z,10.60
2019-05-13T22:06:33.713Z,10.53
2019-05-13T22:09:08.588Z,10.43
2019-05-13T22:11:41.777Z,10.43
2019-05-13T22:14:12.431Z,10.33
2019-05-13T22:16:43.426Z,10.32
2019-05-13T22:19:14.383Z,10.26
2019-05-13T22:21:45.336Z,10.22
2019-05-13T22:24:16.360Z,10.14
2019-05-13T22:26:47.351Z,10.17
2019-05-13T22:29:18.450Z,10.12
2019-05-13T22:31:51.162Z,10.13
2019-05-13T22:34:22.319Z,9.98
2019-05-13T22:36:53.571Z,9.91
2019-05-13T22:39:26.011Z,9.93
2019-05-13T22:41:57.404Z,9.87
2019-05-13T22:44:28.480Z,9.87
2019-05-13T22:46:59.466Z,9.87
2019-05-13T22:49:31.195Z,9.80
2019-05-13T22:52:02.375Z,9.83
2019-05-13T22:54:33.369Z,9.83
2019-05-13T22:57:04.311Z,9.83
2019-05-13T22:59:35.290Z,9.83
2019-05-13T23:02:06.557Z,9.82
2019-05-13T23:04:38.113Z,9.86
2019-05-13T23:07:11.342Z,9.83
2019-05-13T23:09:41.897Z,9.73
2019-05-13T23:12:12.791Z,9.69
2019-05-13T23:14:43.816Z,9.68
2019-05-13T23:17:14.815Z,9.57
2019-05-13T23:19:45.970Z,9.60
2019-05-13T23:22:16.837Z,9.57
2019-05-13T23:24:47.742Z,9.59
2019-05-13T23:27:18.771Z,9.61
2019-05-13T23:29:51.584Z,9.53
2019-05-13T23:32:22.238Z,9.49
2019-05-13T23:34:53.237Z,9.45
2019-05-13T23:37:24.135Z,9.42
2019-05-13T23:39:55.844Z,9.42
2019-05-13T23:42:27.163Z,9.38
2019-05-13T23:44:58.674Z,9.34
2019-05-13T23:47:31.127Z,9.39
2019-05-13T23:50:02.214Z,9.38
2019-05-13T23:52:33.271Z,9.24
2019-05-13T23:55:06.005Z,9.24
2019-05-13T23:57:36.890Z,9.20
